Time;durP1;ratioP1;P1;durP2;ratioP2;P2;SDS_P1;SDS_P2;PMS_P1;PMS_P2;Temp;Humidity;BMP_temperature;BMP_pressure;BME280_temperature;BME280_humidity;BME280_pressure;Samples;Min_cycle;Max_cycle;Signal;HPM_P1;HPM_P2
2023/09/05 00:01:54;;;;;;;104.90;57.83;;;20.10;94.00;;;;;;4960617;28;99180;-47
2023/09/05 00:04:20;;;;;;;105.95;57.33;;;20.10;94.00;;;;;;4971033;28;95271;-47
2023/09/05 00:06:46;;;;;;;104.15;57.13;;;20.10;94.10;;;;;;4959688;28;95498;-49
2023/09/05 00:09:14;;;;;;;104.53;57.70;;;20.10;94.20;;;;;;4971316;28;96086;-49
2023/09/05 00:11:39;;;;;;;103.80;56.75;;;20.10;94.20;;;;;;4959887;28;94889;-46
2023/09/05 00:14:05;;;;;;;103.63;56.95;;;20.00;94.80;;;;;;4973953;28;97125;-47
2023/09/05 00:16:31;;;;;;;103.38;56.95;;;20.10;94.00;;;;;;4957576;28;96281;-47
2023/09/05 00:18:57;;;;;;;103.88;57.33;;;20.00;93.70;;;;;;4967423;28;94045;-46
2023/09/05 00:21:22;;;;;;;104.95;57.13;;;20.00;94.30;;;;;;4958735;28;96044;-47
2023/09/05 00:23:48;;;;;;;105.07;57.38;;;20.00;94.60;;;;;;4968315;28;96606;-47
2023/09/05 00:26:14;;;;;;;104.55;57.42;;;20.00;94.10;;;;;;4964619;28;98644;-47
2023/09/05 00:28:43;;;;;;;103.93;57.42;;;19.90;93.90;;;;;;4965727;28;97502;-47
2023/09/05 00:31:11;;;;;;;104.35;57.53;;;19.90;93.30;;;;;;4968065;28;95219;-47
2023/09/05 00:33:37;;;;;;;104.03;57.38;;;19.90;93.60;;;;;;4964124;28;96426;-47
2023/09/05 00:36:04;;;;;;;103.43;57.05;;;19.90;94.00;;;;;;4953827;28;98117;-47
2023/09/05 00:38:32;;;;;;;103.13;57.05;;;19.90;93.70;;;;;;4960880;28;94809;-47
2023/09/05 00:40:57;;;;;;;103.63;57.28;;;19.90;93.50;;;;;;4971201;28;95122;-46
2023/09/05 00:43:23;;;;;;;104.35;57.20;;;19.90;93.50;;;;;;4942466;28;96473;-48
2023/09/05 00:45:51;;;;;;;102.93;57.10;;;19.80;93.40;;;;;;4967687;28;95584;-48
2023/09/05 00:48:18;;;;;;;104.28;57.20;;;19.80;93.60;;;;;;4973521;28;95086;-48
2023/09/05 00:50:45;;;;;;;104.30;57.63;;;19.80;93.70;;;;;;4962264;28;102009;-46
2023/09/05 00:53:11;;;;;;;103.68;57.47;;;19.80;93.50;;;;;;4967581;28;99031;-47
2023/09/05 00:55:37;;;;;;;103.72;57.13;;;19.80;94.00;;;;;;4944428;28;97261;-46
2023/09/05 00:58:03;;;;;;;104.30;57.33;;;19.70;94.30;;;;;;4965266;28;95814;-48
2023/09/05 01:00:29;;;;;;;103.32;57.22;;;19.80;94.20;;;;;;4971219;28;96359;-49
2023/09/05 01:02:54;;;;;;;103.32;56.95;;;19.70;93.60;;;;;;4965628;28;95383;-46
2023/09/05 01:05:24;;;;;;;103.30;57.35;;;19.70;93.40;;;;;;4960579;28;95515;-46
2023/09/05 01:08:08;;;;;;;103.97;56.90;;;19.70;94.20;;;;;;4975090;28;94278;-47
2023/09/05 01:10:46;;;;;;;103.10;56.80;;;19.70;94.30;;;;;;4966873;28;95544;-47
2023/09/05 01:13:11;;;;;;;102.90;56.58;;;19.70;94.60;;;;;;4941293;28;99901;-46
2023/09/05 01:15:37;;;;;;;103.40;56.97;;;19.70;94.30;;;;;;4965644;28;99791;-46
2023/09/05 01:18:03;;;;;;;102.93;57.15;;;19.70;94.00;;;;;;4973869;28;95005;-48
2023/09/05 01:20:49;;;;;;;103.07;56.88;;;19.60;94.10;;;;;;4964756;28;95614;-46
2023/09/05 01:23:28;;;;;;;103.15;57.20;;;19.60;94.10;;;;;;4959688;28;98376;-46
2023/09/05 01:25:54;;;;;;;103.50;56.92;;;19.60;94.40;;;;;;4970197;28;95001;-47
2023/09/05 01:28:23;;;;;;;103.00;56.90;;;19.50;94.10;;;;;;4963117;28;95819;-46
2023/09/05 01:30:49;;;;;;;103.13;57.17;;;19.50;94.40;;;;;;4949977;28;97507;-46
2023/09/05 01:33:16;;;;;;;103.72;57.33;;;19.50;94.00;;;;;;4954388;28;97201;-46
2023/09/05 01:35:41;;;;;;;102.75;57.22;;;19.50;94.30;;;;;;4964338;28;95727;-47
2023/09/05 01:38:08;;;;;;;102.82;56.83;;;19.50;94.10;;;;;;4964117;28;95613;-46
2023/09/05 01:40:33;;;;;;;103.65;57.03;;;19.50;93.80;;;;;;4953035;28;97241;-48
2023/09/05 01:42:59;;;;;;;103.25;57.20;;;19.50;94.10;;;;;;4971730;28;94737;-46
2023/09/05 01:45:24;;;;;;;102.93;56.97;;;19.40;93.70;;;;;;4968617;28;95632;-47
2023/09/05 01:47:50;;;;;;;103.25;56.65;;;19.40;94.40;;;;;;4962104;28;94912;-47
2023/09/05 01:50:17;;;;;;;103.13;57.00;;;19.40;95.00;;;;;;4959157;28;95073;-48
2023/09/05 01:52:43;;;;;;;103.63;56.88;;;19.40;93.80;;;;;;4966847;28;96384;-48
2023/09/05 01:55:09;;;;;;;103.65;57.63;;;19.40;94.60;;;;;;4960806;28;99790;-47
2023/09/05 01:57:34;;;;;;;102.72;56.72;;;19.40;94.60;;;;;;4969441;28;95265;-47
2023/09/05 02:00:00;;;;;;;101.60;56.40;;;19.40;94.50;;;;;;4971451;28;95321;-46
2023/09/05 02:02:25;;;;;;;102.63;56.88;;;19.40;94.20;;;;;;4972692;28;96564;-46
2023/09/05 02:04:51;;;;;;;103.72;57.05;;;19.30;94.90;;;;;;4970897;28;96280;-47
2023/09/05 02:07:18;;;;;;;102.22;56.42;;;19.40;94.90;;;;;;4963189;28;94938;-47
2023/09/05 02:09:44;;;;;;;101.95;56.58;;;19.30;93.60;;;;;;4970052;28;96101;-46
2023/09/05 02:12:10;;;;;;;102.38;56.65;;;19.30;94.00;;;;;;4941722;28;96276;-46
2023/09/05 02:14:38;;;;;;;103.55;56.92;;;19.30;94.80;;;;;;4964791;28;95808;-47
2023/09/05 02:17:04;;;;;;;101.63;56.10;;;19.30;94.70;;;;;;4960342;28;99445;-46
2023/09/05 02:19:29;;;;;;;103.55;56.75;;;19.20;94.80;;;;;;4962461;28;94706;-46
2023/09/05 02:21:56;;;;;;;102.78;56.88;;;19.30;96.00;;;;;;4961903;28;94273;-47
2023/09/05 02:24:21;;;;;;;102.85;56.75;;;19.20;94.50;;;;;;4966470;28;95808;-46
2023/09/05 02:26:47;;;;;;;102.93;57.38;;;19.20;94.90;;;;;;4951095;28;95822;-49
2023/09/05 02:29:12;;;;;;;102.13;56.70;;;19.20;95.60;;;;;;4969936;28;96308;-47
2023/09/05 02:31:38;;;;;;;103.13;56.60;;;19.20;95.00;;;;;;4972584;28;95272;-47
2023/09/05 02:34:04;;;;;;;102.32;56.90;;;19.20;95.10;;;;;;4965532;28;95447;-47
2023/09/05 02:36:30;;;;;;;103.35;56.83;;;19.20;94.80;;;;;;4965059;28;96018;-46
2023/09/05 02:38:58;;;;;;;101.75;56.80;;;19.20;94.40;;;;;;4971772;28;95151;-46
2023/09/05 02:41:23;;;;;;;101.45;56.13;;;19.10;94.50;;;;;;4950984;28;96086;-48
2023/09/05 02:43:50;;;;;;;104.72;56.92;;;19.10;95.40;;;;;;4972869;28;95100;-48
2023/09/05 02:46:16;;;;;;;102.18;56.47;;;19.20;95.20;;;;;;4970276;28;95224;-47
2023/09/05 02:48:42;;;;;;;102.47;56.42;;;19.10;95.10;;;;;;4970243;28;94963;-48
2023/09/05 02:51:11;;;;;;;102.90;57.15;;;19.10;95.50;;;;;;4965869;28;95024;-46
2023/09/05 02:53:37;;;;;;;101.97;56.70;;;19.10;95.20;;;;;;4950860;28;97241;-48
2023/09/05 02:56:04;;;;;;;102.38;56.25;;;19.10;95.10;;;;;;4975325;28;96028;-46
2023/09/05 02:58:31;;;;;;;103.15;56.88;;;19.10;94.70;;;;;;4959987;28;96306;-46
2023/09/05 03:01:02;;;;;;;101.45;56.38;;;19.10;94.60;;;;;;4966479;28;95717;-47
2023/09/05 03:03:28;;;;;;;102.90;56.78;;;19.00;94.00;;;;;;4964848;28;95525;-46
2023/09/05 03:05:53;;;;;;;102.70;56.83;;;19.00;94.20;;;;;;4963328;28;95118;-46
2023/09/05 03:08:19;;;;;;;101.88;56.65;;;19.00;94.70;;;;;;4966694;28;95725;-48
2023/09/05 03:10:51;;;;;;;102.32;56.75;;;19.00;94.70;;;;;;4970588;28;95762;-46
2023/09/05 03:13:18;;;;;;;102.22;56.78;;;19.00;94.80;;;;;;4969328;28;94707;-47
2023/09/05 03:15:43;;;;;;;101.97;56.80;;;19.00;94.80;;;;;;4965815;28;97626;-47
2023/09/05 03:18:09;;;;;;;101.78;56.65;;;19.00;95.00;;;;;;4972825;28;95768;-47
2023/09/05 03:20:35;;;;;;;103.00;56.92;;;19.00;94.50;;;;;;4965370;28;99034;-46
2023/09/05 03:23:00;;;;;;;102.05;56.65;;;19.00;94.60;;;;;;4959313;28;97620;-47
2023/09/05 03:25:26;;;;;;;102.18;56.42;;;18.90;94.50;;;;;;4963278;28;94754;-47
2023/09/05 03:27:52;;;;;;;103.68;56.63;;;18.90;94.70;;;;;;4963684;28;99248;-48
2023/09/05 03:30:17;;;;;;;101.88;56.03;;;18.90;95.00;;;;;;4972095;28;94741;-46
2023/09/05 03:32:43;;;;;;;102.78;56.72;;;18.90;94.90;;;;;;4956857;28;96280;-49
2023/09/05 03:35:09;;;;;;;102.70;56.92;;;18.90;95.40;;;;;;4979447;28;95737;-46
2023/09/05 03:37:35;;;;;;;103.35;56.88;;;18.90;95.10;;;;;;4964619;28;95614;-49
2023/09/05 03:40:01;;;;;;;102.88;56.80;;;18.90;94.60;;;;;;4970480;28;96552;-46
2023/09/05 03:42:26;;;;;;;101.85;56.72;;;18.80;94.60;;;;;;4968049;28;97600;-47
2023/09/05 03:44:52;;;;;;;101.40;56.58;;;18.80;94.60;;;;;;4970208;28;95018;-46
2023/09/05 03:47:18;;;;;;;101.82;56.90;;;18.80;95.10;;;;;;4972460;28;94683;-46
2023/09/05 03:49:43;;;;;;;101.40;56.60;;;18.80;95.00;;;;;;4948382;28;95218;-47
2023/09/05 03:52:09;;;;;;;101.85;56.75;;;18.80;95.40;;;;;;4963030;28;99223;-46
2023/09/05 03:54:34;;;;;;;101.07;56.25;;;18.80;95.30;;;;;;4964334;28;94983;-47
2023/09/05 03:57:00;;;;;;;102.90;57.20;;;18.70;95.20;;;;;;4974044;28;95272;-46
2023/09/05 03:59:25;;;;;;;101.15;56.38;;;18.80;95.30;;;;;;4974231;28;94586;-46
2023/09/05 04:01:51;;;;;;;100.82;56.25;;;18.70;95.10;;;;;;4958545;28;95314;-46
2023/09/05 04:04:17;;;;;;;101.43;56.35;;;18.70;95.10;;;;;;4969422;28;95150;-47
2023/09/05 04:06:42;;;;;;;101.47;56.70;;;18.70;95.20;;;;;;4965926;28;98960;-46
2023/09/05 04:09:08;;;;;;;101.80;56.42;;;18.70;95.30;;;;;;4973226;28;99571;-46
2023/09/05 04:11:34;;;;;;;103.80;56.85;;;18.70;95.20;;;;;;4962248;28;97421;-47
2023/09/05 04:14:00;;;;;;;101.30;56.55;;;18.70;95.30;;;;;;4972697;28;95334;-46
2023/09/05 04:16:25;;;;;;;102.20;56.53;;;18.70;95.50;;;;;;4967117;28;95710;-49
2023/09/05 04:18:51;;;;;;;101.85;56.55;;;18.70;95.40;;;;;;4972748;28;94700;-46
2023/09/05 04:21:16;;;;;;;102.05;56.28;;;18.70;95.40;;;;;;4973835;28;95869;-48
2023/09/05 04:23:42;;;;;;;102.82;56.42;;;18.70;95.00;;;;;;4971261;28;94037;-46
2023/09/05 04:26:07;;;;;;;101.90;56.33;;;18.70;95.20;;;;;;4979637;28;95166;-47
2023/09/05 04:28:33;;;;;;;101.18;55.83;;;18.60;95.30;;;;;;4929797;28;95808;-46
2023/09/05 04:31:04;;;;;;;101.50;56.25;;;18.60;95.70;;;;;;4971954;28;96820;-46
2023/09/05 04:33:31;;;;;;;100.75;56.03;;;18.70;95.90;;;;;;4971823;28;96557;-47
2023/09/05 04:35:58;;;;;;;102.72;56.45;;;18.70;96.40;;;;;;4967677;28;94814;-46
2023/09/05 04:38:23;;;;;;;102.68;56.13;;;18.70;96.00;;;;;;4973723;28;95100;-48
2023/09/05 04:40:49;;;;;;;100.90;56.47;;;18.60;95.90;;;;;;4967433;28;96929;-46
2023/09/05 04:43:14;;;;;;;101.88;56.47;;;18.60;95.60;;;;;;4969498;28;96327;-47
2023/09/05 04:45:40;;;;;;;102.35;56.30;;;18.60;95.50;;;;;;4962979;28;96624;-48
2023/09/05 04:48:06;;;;;;;102.43;57.03;;;18.60;95.00;;;;;;4971421;28;94341;-47
2023/09/05 04:50:32;;;;;;;107.40;56.78;;;18.60;94.70;;;;;;4967410;28;94940;-48
2023/09/05 04:52:57;;;;;;;103.63;56.83;;;18.50;96.00;;;;;;4972864;28;94863;-46
2023/09/05 04:55:23;;;;;;;106.10;57.53;;;18.60;97.50;;;;;;4969567;28;96976;-46
2023/09/05 04:57:49;;;;;;;110.53;58.42;;;18.60;97.60;;;;;;4963621;28;97443;-47
2023/09/05 05:00:17;;;;;;;109.75;57.88;;;18.60;97.60;;;;;;4969811;28;95620;-48
2023/09/05 05:02:43;;;;;;;109.47;57.75;;;18.60;97.70;;;;;;4966073;28;96408;-46
2023/09/05 05:05:11;;;;;;;106.47;57.88;;;18.60;97.70;;;;;;4971021;28;95146;-48
2023/09/05 05:07:37;;;;;;;108.75;58.60;;;18.60;97.90;;;;;;4968704;28;94755;-47
2023/09/05 05:10:03;;;;;;;109.07;58.40;;;18.60;98.20;;;;;;4961667;28;94967;-43
2023/09/05 05:12:29;;;;;;;105.75;57.35;;;18.60;99.30;;;;;;4968329;28;95107;-42
2023/09/05 05:14:55;;;;;;;104.07;57.60;;;18.10;91.60;;;;;;4968575;28;94636;-45
2023/09/05 05:17:20;;;;;;;102.97;57.38;;;17.90;93.00;;;;;;4963886;28;95756;-45
2023/09/05 05:19:46;;;;;;;103.65;57.58;;;17.60;92.90;;;;;;4964022;28;96299;-43
2023/09/05 05:22:11;;;;;;;103.43;57.75;;;17.50;93.60;;;;;;4968989;28;95801;-45
2023/09/05 05:24:37;;;;;;;105.15;57.10;;;17.50;93.00;;;;;;4964398;28;95161;-45
2023/09/05 05:27:03;;;;;;;102.53;57.28;;;17.50;93.90;;;;;;4971269;28;95906;-45
2023/09/05 05:29:32;;;;;;;113.07;58.17;;;17.60;93.10;;;;;;4976051;28;94886;-44
2023/09/05 05:31:58;;;;;;;101.78;56.95;;;17.90;92.80;;;;;;4965464;28;94868;-45
2023/09/05 05:34:24;;;;;;;104.25;57.08;;;18.00;91.80;;;;;;4967580;28;95228;-51
2023/09/05 05:36:49;;;;;;;103.90;56.40;;;18.20;92.40;;;;;;4967301;28;94871;-48
2023/09/05 05:39:15;;;;;;;105.00;56.70;;;18.30;92.40;;;;;;4961970;28;96279;-47
2023/09/05 05:41:41;;;;;;;103.55;56.22;;;18.30;92.20;;;;;;4964720;28;97088;-46
2023/09/05 05:44:06;;;;;;;102.88;56.55;;;18.20;92.40;;;;;;4962181;28;99095;-46
2023/09/05 05:46:32;;;;;;;104.15;56.60;;;18.20;92.60;;;;;;4974244;28;97850;-45
2023/09/05 05:48:58;;;;;;;102.38;55.97;;;18.10;92.90;;;;;;4968212;28;99088;-49
2023/09/05 05:51:25;;;;;;;103.88;56.08;;;18.20;93.20;;;;;;4972837;28;95101;-46
2023/09/05 05:53:51;;;;;;;102.97;55.95;;;18.20;93.30;;;;;;4954614;28;97221;-46
2023/09/05 05:56:17;;;;;;;104.20;55.72;;;18.20;93.40;;;;;;4975634;28;95097;-45
2023/09/05 05:58:44;;;;;;;105.95;55.83;;;18.20;93.50;;;;;;4971466;28;97360;-45
2023/09/05 06:01:10;;;;;;;101.78;55.80;;;18.20;93.50;;;;;;4968008;28;97441;-47
2023/09/05 06:03:35;;;;;;;105.82;55.65;;;18.20;93.50;;;;;;4972083;28;94793;-46
2023/09/05 06:06:03;;;;;;;102.15;56.20;;;18.30;93.70;;;;;;4967204;28;95228;-48
2023/09/05 06:08:29;;;;;;;102.10;55.70;;;18.30;93.70;;;;;;4973174;28;100311;-46
2023/09/05 06:10:55;;;;;;;101.50;56.35;;;18.30;93.60;;;;;;4966021;28;94839;-47
2023/09/05 06:13:21;;;;;;;101.95;55.88;;;18.30;93.50;;;;;;4971246;28;96279;-46
2023/09/05 06:15:46;;;;;;;103.43;56.30;;;18.40;93.70;;;;;;4970076;28;97874;-46
2023/09/05 06:18:12;;;;;;;101.53;55.85;;;18.40;93.80;;;;;;4972412;28;96055;-46
2023/09/05 06:20:38;;;;;;;102.93;55.97;;;18.40;93.90;;;;;;4970358;28;94931;-45
2023/09/05 06:23:04;;;;;;;103.00;55.83;;;18.40;93.90;;;;;;4972595;28;98571;-47
2023/09/05 06:25:30;;;;;;;102.75;55.92;;;18.40;94.00;;;;;;4976843;28;95933;-46
2023/09/05 06:27:56;;;;;;;103.32;56.25;;;18.40;93.80;;;;;;4966052;28;96621;-48
2023/09/05 06:30:22;;;;;;;104.00;55.92;;;18.40;93.70;;;;;;4973462;28;95187;-46
2023/09/05 06:32:48;;;;;;;103.15;56.22;;;18.50;93.90;;;;;;4972082;28;96829;-45
2023/09/05 06:35:15;;;;;;;101.05;55.88;;;18.50;93.80;;;;;;4971185;28;95621;-46
2023/09/05 06:37:40;;;;;;;104.03;55.78;;;18.50;94.10;;;;;;4969224;28;94693;-46
2023/09/05 06:40:18;;;;;;;101.63;55.90;;;18.60;94.10;;;;;;4960829;28;94847;-47
2023/09/05 06:42:44;;;;;;;103.88;55.92;;;18.60;94.10;;;;;;4973655;28;94899;-48
2023/09/05 06:45:10;;;;;;;102.13;55.67;;;18.70;94.30;;;;;;4965729;28;94776;-46
2023/09/05 06:47:36;;;;;;;103.38;56.17;;;18.70;94.30;;;;;;4975765;28;95120;-47
2023/09/05 06:50:04;;;;;;;101.75;55.42;;;18.70;94.00;;;;;;4973890;28;94883;-45
2023/09/05 06:52:33;;;;;;;102.95;55.65;;;18.80;94.00;;;;;;4969388;28;94794;-46
2023/09/05 06:54:59;;;;;;;105.30;56.10;;;18.80;93.70;;;;;;4971296;28;95002;-47
2023/09/05 06:57:26;;;;;;;101.75;55.88;;;18.80;93.70;;;;;;4966607;28;100897;-46
2023/09/05 06:59:52;;;;;;;101.35;55.80;;;18.80;94.00;;;;;;4973761;28;96166;-47
2023/09/05 07:02:18;;;;;;;103.82;56.10;;;18.90;94.00;;;;;;4967197;28;96217;-47
2023/09/05 07:04:43;;;;;;;104.32;55.88;;;18.90;94.10;;;;;;4972164;28;94838;-46
2023/09/05 07:07:09;;;;;;;103.95;56.33;;;19.00;94.00;;;;;;4972479;28;94762;-47
2023/09/05 07:09:35;;;;;;;103.18;56.15;;;19.00;93.70;;;;;;4966655;28;94703;-46
2023/09/05 07:12:03;;;;;;;101.20;56.05;;;19.00;93.80;;;;;;4973183;28;94878;-50
2023/09/05 07:14:29;;;;;;;103.50;55.65;;;19.10;93.80;;;;;;4973440;28;94166;-46
2023/09/05 07:16:55;;;;;;;101.97;55.95;;;19.10;93.70;;;;;;4973530;28;95888;-46
2023/09/05 07:19:20;;;;;;;101.50;55.78;;;19.20;93.40;;;;;;4965474;28;95274;-46
2023/09/05 07:21:46;;;;;;;101.70;55.90;;;19.20;93.50;;;;;;4973017;28;95883;-49
2023/09/05 07:24:13;;;;;;;102.95;56.17;;;19.30;93.40;;;;;;4973740;28;94640;-46
2023/09/05 07:26:40;;;;;;;101.78;55.83;;;19.30;93.30;;;;;;4973232;28;96086;-49
2023/09/05 07:29:10;;;;;;;102.03;56.03;;;19.30;93.30;;;;;;4976202;28;98027;-48
2023/09/05 07:31:39;;;;;;;101.47;55.95;;;19.40;93.10;;;;;;4972561;28;94639;-47
2023/09/05 07:34:05;;;;;;;101.57;55.90;;;19.40;93.00;;;;;;4973944;28;94679;-47
2023/09/05 07:36:33;;;;;;;102.35;55.90;;;19.40;92.90;;;;;;4966072;28;95561;-47
2023/09/05 07:38:59;;;;;;;101.35;55.65;;;19.50;92.90;;;;;;4969534;28;96014;-51
2023/09/05 07:41:24;;;;;;;102.10;55.90;;;19.50;92.60;;;;;;4967821;28;95227;-46
2023/09/05 07:43:50;;;;;;;102.07;55.83;;;19.60;92.80;;;;;;4969867;28;95555;-46
2023/09/05 07:46:16;;;;;;;103.15;56.40;;;19.60;92.50;;;;;;4973556;28;96675;-46
2023/09/05 07:48:42;;;;;;;100.85;55.75;;;19.70;92.40;;;;;;4968274;28;95289;-47
2023/09/05 07:51:07;;;;;;;102.60;56.13;;;19.70;92.70;;;;;;4974912;28;95132;-47
2023/09/05 07:53:35;;;;;;;103.45;56.05;;;19.80;92.10;;;;;;4968043;28;94729;-47
2023/09/05 07:56:02;;;;;;;101.45;56.00;;;19.80;91.90;;;;;;4969215;28;95053;-46
2023/09/05 07:58:28;;;;;;;102.25;55.65;;;19.80;91.90;;;;;;4977462;28;95914;-46
2023/09/05 08:00:54;;;;;;;103.13;55.90;;;19.80;91.90;;;;;;4971964;28;94656;-46
2023/09/05 08:03:20;;;;;;;102.72;55.83;;;19.90;91.50;;;;;;4970927;28;94304;-47
2023/09/05 08:05:47;;;;;;;101.38;55.78;;;19.90;91.60;;;;;;4968956;28;95108;-46
2023/09/05 08:08:13;;;;;;;103.10;55.75;;;19.90;91.40;;;;;;4970147;28;95249;-47
2023/09/05 08:10:39;;;;;;;101.80;55.95;;;19.90;91.50;;;;;;4965687;28;98797;-47
2023/09/05 08:13:05;;;;;;;103.05;56.25;;;20.00;91.30;;;;;;4970875;28;95101;-46
2023/09/05 08:15:30;;;;;;;102.40;55.55;;;20.00;91.00;;;;;;4967251;28;96693;-46
2023/09/05 08:17:56;;;;;;;103.72;56.38;;;20.10;91.00;;;;;;4981333;28;94940;-47
2023/09/05 08:20:22;;;;;;;103.57;56.03;;;20.10;90.90;;;;;;4967325;28;95083;-48
2023/09/05 08:22:48;;;;;;;102.90;56.13;;;20.20;90.90;;;;;;4974175;28;95070;-46
2023/09/05 08:25:15;;;;;;;105.10;55.78;;;20.20;90.80;;;;;;4972775;28;95004;-46
2023/09/05 08:27:42;;;;;;;102.90;55.97;;;20.20;90.70;;;;;;4974433;28;95482;-46
2023/09/05 08:30:11;;;;;;;103.50;56.28;;;20.30;90.40;;;;;;4976647;28;95059;-46
2023/09/05 08:32:38;;;;;;;104.65;56.05;;;20.40;90.20;;;;;;4968550;28;98313;-47
2023/09/05 08:35:05;;;;;;;102.85;56.13;;;20.40;90.20;;;;;;4972452;28;95993;-46
2023/09/05 08:37:33;;;;;;;103.82;56.33;;;20.50;90.30;;;;;;4967898;28;96060;-46
2023/09/05 08:39:58;;;;;;;104.15;56.03;;;20.50;90.10;;;;;;4970353;28;95097;-46
2023/09/05 08:42:24;;;;;;;103.22;55.95;;;20.50;90.00;;;;;;4971867;28;94746;-48
2023/09/05 08:44:52;;;;;;;102.53;56.05;;;20.60;90.00;;;;;;4969573;28;95649;-46
2023/09/05 08:47:18;;;;;;;103.32;56.28;;;20.60;90.00;;;;;;4954869;28;96393;-47
2023/09/05 08:49:43;;;;;;;103.60;56.22;;;20.70;89.60;;;;;;4969847;28;95784;-46
2023/09/05 08:52:11;;;;;;;103.32;56.13;;;20.70;89.40;;;;;;4972497;28;94397;-47
2023/09/05 08:54:37;;;;;;;106.30;56.40;;;20.80;88.70;;;;;;4966314;28;95876;-46
2023/09/05 08:57:04;;;;;;;105.63;56.45;;;20.80;89.00;;;;;;4974521;28;94644;-46
2023/09/05 08:59:32;;;;;;;103.53;56.30;;;20.90;89.00;;;;;;4966203;28;96057;-48
2023/09/05 09:01:59;;;;;;;103.82;56.65;;;20.90;88.50;;;;;;4971985;28;94830;-46
2023/09/05 09:04:26;;;;;;;105.03;56.60;;;21.00;89.00;;;;;;4970341;28;100803;-46
2023/09/05 09:06:57;;;;;;;103.18;56.20;;;21.00;87.90;;;;;;4971499;28;95139;-46
2023/09/05 09:09:34;;;;;;;;;;;21.10;88.00;;;;;;4970231;28;94757;-47
2023/09/05 09:12:00;;;;;;;106.40;56.28;;;21.10;87.80;;;;;;4971919;28;95010;-46
2023/09/05 09:14:26;;;;;;;104.95;56.22;;;21.10;87.70;;;;;;4971377;28;95094;-46
2023/09/05 09:16:51;;;;;;;106.15;56.00;;;21.20;87.30;;;;;;4968353;28;94913;-46
2023/09/05 09:19:17;;;;;;;109.63;56.67;;;21.20;87.10;;;;;;4971099;28;95048;-47
2023/09/05 09:21:43;;;;;;;103.43;56.30;;;21.20;87.30;;;;;;4972145;28;95549;-47
2023/09/05 09:24:09;;;;;;;106.53;56.83;;;21.30;87.10;;;;;;4967820;28;95714;-46
2023/09/05 09:26:39;;;;;;;105.93;56.55;;;21.30;86.80;;;;;;4971118;28;95306;-48
2023/09/05 09:29:10;;;;;;;103.90;56.60;;;21.40;86.80;;;;;;4965427;28;94712;-46
2023/09/05 09:31:40;;;;;;;104.13;56.20;;;21.40;86.70;;;;;;4971745;28;94787;-47
2023/09/05 09:34:10;;;;;;;105.60;56.45;;;21.50;86.20;;;;;;4963962;28;95995;-46
2023/09/05 09:36:37;;;;;;;106.37;56.57;;;21.50;85.90;;;;;;4968724;28;94963;-46
2023/09/05 09:39:10;;;;;;;107.25;56.45;;;21.50;86.10;;;;;;4972079;28;97267;-47
2023/09/05 09:41:43;;;;;;;105.32;56.80;;;21.50;85.80;;;;;;4966875;28;96726;-46
2023/09/05 09:44:09;;;;;;;103.93;56.03;;;21.60;85.90;;;;;;4970705;28;94869;-45
2023/09/05 09:46:35;;;;;;;104.63;56.10;;;21.60;85.60;;;;;;4968104;28;94766;-47
2023/09/05 09:49:03;;;;;;;105.32;56.95;;;21.70;85.90;;;;;;4969032;28;97086;-48
2023/09/05 09:51:32;;;;;;;105.20;56.45;;;21.70;85.40;;;;;;4969929;28;95146;-46
2023/09/05 09:54:06;;;;;;;104.53;56.30;;;21.80;85.30;;;;;;4965254;28;99875;-46
2023/09/05 09:56:33;;;;;;;105.70;56.15;;;21.80;85.50;;;;;;4971632;28;95123;-46
2023/09/05 09:59:00;;;;;;;105.63;56.72;;;21.90;85.40;;;;;;4966419;28;98161;-46
2023/09/05 10:01:28;;;;;;;105.05;56.63;;;21.90;84.90;;;;;;4969235;28;97173;-46
2023/09/05 10:03:54;;;;;;;106.28;56.50;;;22.00;84.80;;;;;;4967758;28;94765;-46
2023/09/05 10:06:20;;;;;;;105.43;56.67;;;22.00;84.80;;;;;;4972467;28;95072;-46
2023/09/05 10:08:47;;;;;;;105.05;56.80;;;22.10;84.80;;;;;;4969432;28;95104;-48
2023/09/05 10:11:14;;;;;;;104.55;56.53;;;22.10;85.00;;;;;;4972572;28;95342;-49
2023/09/05 10:13:41;;;;;;;105.72;56.75;;;22.20;84.30;;;;;;4967958;28;96451;-47
2023/09/05 10:16:08;;;;;;;105.85;56.80;;;22.20;84.50;;;;;;4967504;28;95804;-46
2023/09/05 10:18:38;;;;;;;105.80;56.63;;;22.20;84.30;;;;;;4966527;28;94727;-46
2023/09/05 10:21:04;;;;;;;106.85;56.67;;;22.30;84.50;;;;;;4971561;28;98717;-48
2023/09/05 10:23:32;;;;;;;107.82;56.95;;;22.30;84.00;;;;;;4962170;28;95821;-47
2023/09/05 10:26:00;;;;;;;106.72;57.13;;;22.30;83.70;;;;;;4971203;28;94760;-45
2023/09/05 10:28:28;;;;;;;105.47;56.47;;;22.30;83.10;;;;;;4966235;28;96394;-47
2023/09/05 10:31:03;;;;;;;105.80;57.15;;;22.40;83.20;;;;;;4970606;28;93668;-46
2023/09/05 10:33:35;;;;;;;106.85;56.85;;;22.40;83.30;;;;;;4971630;28;95905;-46
2023/09/05 10:36:02;;;;;;;107.30;56.92;;;22.50;82.70;;;;;;4967848;28;95741;-46
2023/09/05 10:38:30;;;;;;;105.85;57.22;;;22.60;82.60;;;;;;4970059;28;98407;-46
2023/09/05 10:40:55;;;;;;;105.75;56.97;;;22.60;83.00;;;;;;4965816;28;96730;-48
2023/09/05 10:43:22;;;;;;;106.32;56.95;;;22.60;82.60;;;;;;4967926;28;95292;-46
2023/09/05 10:45:59;;;;;;;105.07;56.88;;;22.70;82.20;;;;;;4962935;28;94926;-48
2023/09/05 10:48:40;;;;;;;106.28;56.58;;;22.70;81.80;;;;;;4972450;28;97861;-46
2023/09/05 10:51:07;;;;;;;;;;;22.80;81.80;;;;;;4976297;28;94569;-46
2023/09/05 10:53:34;;;;;;;107.20;56.65;;;22.80;81.80;;;;;;4968633;28;95003;-46
2023/09/05 10:56:00;;;;;;;105.50;56.65;;;22.80;81.80;;;;;;4974779;28;96066;-46
2023/09/05 10:58:47;;;;;;;106.13;57.03;;;22.90;81.50;;;;;;4967884;28;94857;-46
2023/09/05 11:01:31;;;;;;;105.20;56.95;;;22.90;81.00;;;;;;4977085;28;94706;-47
2023/09/05 11:04:07;;;;;;;108.05;57.13;;;23.00;81.40;;;;;;4958080;28;96118;-46
2023/09/05 11:06:42;;;;;;;105.18;56.83;;;23.00;81.40;;;;;;4978914;28;94858;-46
2023/09/05 11:09:08;;;;;;;106.93;57.05;;;23.10;81.00;;;;;;4980665;28;94818;-48
2023/09/05 11:11:37;;;;;;;107.30;57.08;;;23.10;80.60;;;;;;4969512;28;95197;-46
2023/09/05 11:14:04;;;;;;;107.72;57.33;;;23.10;80.30;;;;;;4973358;28;96015;-46
2023/09/05 11:16:47;;;;;;;111.63;57.42;;;23.20;80.90;;;;;;4966509;28;96392;-48
2023/09/05 11:19:37;;;;;;;107.57;57.67;;;23.20;80.60;;;;;;4964468;28;96537;-46
2023/09/05 11:22:14;;;;;;;106.23;56.63;;;23.30;80.10;;;;;;4973876;28;99080;-46
2023/09/05 11:24:46;;;;;;;106.47;57.42;;;23.30;81.00;;;;;;4967962;28;94960;-47
2023/09/05 11:27:13;;;;;;;107.57;57.78;;;23.30;80.30;;;;;;4974845;28;95526;-46
2023/09/05 11:29:39;;;;;;;108.75;57.15;;;23.40;80.50;;;;;;4972166;28;98727;-46
2023/09/05 11:32:12;;;;;;;106.88;57.45;;;23.40;79.90;;;;;;4972525;28;99098;-46
2023/09/05 11:34:42;;;;;;;107.57;57.30;;;23.40;79.20;;;;;;4971506;28;95475;-45
2023/09/05 11:37:07;;;;;;;106.93;57.22;;;23.40;79.30;;;;;;4965701;28;94800;-46
2023/09/05 11:39:33;;;;;;;107.80;57.45;;;23.50;78.90;;;;;;4974753;28;95037;-47
2023/09/05 11:42:00;;;;;;;107.68;57.83;;;23.60;78.70;;;;;;4970492;28;96530;-50
2023/09/05 11:44:39;;;;;;;108.20;57.88;;;23.60;78.60;;;;;;4973610;28;95039;-48
2023/09/05 11:47:06;;;;;;;107.43;57.67;;;23.70;79.60;;;;;;4969131;28;94539;-47
2023/09/05 11:49:34;;;;;;;107.72;57.38;;;23.70;78.40;;;;;;4969029;28;95125;-47
2023/09/05 11:52:01;;;;;;;108.20;57.50;;;23.70;78.30;;;;;;4970567;28;94798;-47
2023/09/05 11:54:29;;;;;;;107.68;57.72;;;23.80;78.20;;;;;;4962584;28;97573;-49
2023/09/05 11:56:55;;;;;;;106.97;57.55;;;23.80;77.80;;;;;;4971119;28;96847;-46
2023/09/05 11:59:23;;;;;;;109.65;57.55;;;23.80;77.60;;;;;;4982112;28;95385;-47
2023/09/05 12:01:48;;;;;;;107.45;57.72;;;23.90;77.20;;;;;;4974771;28;95720;-46
2023/09/05 12:04:16;;;;;;;108.07;57.60;;;23.90;77.20;;;;;;4970232;28;95827;-47
2023/09/05 12:06:42;;;;;;;108.10;57.67;;;24.00;77.10;;;;;;4967751;28;97081;-46
2023/09/05 12:09:09;;;;;;;110.07;57.80;;;24.00;76.80;;;;;;4971708;28;95660;-47
2023/09/05 12:11:35;;;;;;;107.53;58.05;;;24.00;76.60;;;;;;4967599;28;96922;-46
2023/09/05 12:14:01;;;;;;;108.88;58.03;;;24.10;76.50;;;;;;4972286;28;95348;-46
2023/09/05 12:16:28;;;;;;;109.13;57.90;;;24.10;76.30;;;;;;4965202;28;95151;-46
2023/09/05 12:19:01;;;;;;;107.72;57.72;;;24.20;76.30;;;;;;4969117;28;96824;-47